createdAt,value
2022-12-20T00:00:41.653Z,0.00
2022-12-20T00:02:41.540Z,0.00
2022-12-20T00:03:41.407Z,0.00
2022-12-20T00:04:41.428Z,0.00
2022-12-20T00:05:41.447Z,0.00
2022-12-20T00:06:41.478Z,0.00
2022-12-20T00:08:41.827Z,0.00
2022-12-20T00:09:41.557Z,0.00
2022-12-20T00:10:41.591Z,0.00
2022-12-20T00:11:41.597Z,0.00
2022-12-20T00:12:41.644Z,0.00
2022-12-20T00:13:41.661Z,0.00
2022-12-20T00:14:41.698Z,0.00
2022-12-20T00:15:42.007Z,0.00
2022-12-20T00:16:41.737Z,0.00
2022-12-20T00:17:41.877Z,0.00
2022-12-20T00:18:41.776Z,0.00
2022-12-20T00:19:41.803Z,0.00
2022-12-20T00:20:41.828Z,0.00
2022-12-20T00:21:41.869Z,0.00
2022-12-20T00:22:42.183Z,0.00
2022-12-20T00:23:41.906Z,0.00
2022-12-20T00:24:41.931Z,0.00
2022-12-20T00:26:41.989Z,0.00
2022-12-20T00:27:42.007Z,0.00
2022-12-20T00:28:42.065Z,0.00
2022-12-20T00:29:42.306Z,0.00
2022-12-20T00:30:42.082Z,0.00
2022-12-20T00:31:42.199Z,0.00
2022-12-20T00:32:42.137Z,0.00
2022-12-20T00:33:42.157Z,0.00
2022-12-20T00:34:42.182Z,0.00
2022-12-20T00:36:42.531Z,0.00
2022-12-20T00:37:42.270Z,0.00
2022-12-20T00:39:42.322Z,0.00
2022-12-20T00:40:42.334Z,0.00
2022-12-20T00:41:42.356Z,0.00
2022-12-20T00:42:42.398Z,0.00
2022-12-20T00:43:42.810Z,0.00
2022-12-20T00:44:42.570Z,0.00
2022-12-20T00:46:42.532Z,0.00
2022-12-20T00:47:42.514Z,0.00
2022-12-20T00:49:42.811Z,0.00
2022-12-20T00:50:42.592Z,0.00
2022-12-20T00:51:42.610Z,0.00
2022-12-20T00:52:42.642Z,0.00
2022-12-20T00:53:42.674Z,0.00
2022-12-20T00:54:42.791Z,0.00
2022-12-20T00:55:43.033Z,0.00
2022-12-20T00:56:42.742Z,0.00
2022-12-20T00:57:42.770Z,0.00
2022-12-20T00:59:42.961Z,0.00
2022-12-20T01:01:43.395Z,0.00
2022-12-20T01:02:43.034Z,0.00
2022-12-20T01:03:43.051Z,0.00
2022-12-20T01:04:42.945Z,0.00
2022-12-20T01:05:42.967Z,0.00
2022-12-20T01:06:42.993Z,0.00
2022-12-20T01:07:43.276Z,0.00
2022-12-20T01:08:43.044Z,0.00
2022-12-20T01:09:43.064Z,0.00
2022-12-20T01:11:43.123Z,0.00
2022-12-20T01:12:43.151Z,0.00
2022-12-20T01:13:43.177Z,0.00
2022-12-20T01:14:43.442Z,0.00
2022-12-20T01:15:43.223Z,0.00
2022-12-20T01:16:43.337Z,0.00
2022-12-20T01:17:43.297Z,0.00
2022-12-20T01:18:43.297Z,0.00
2022-12-20T01:19:43.325Z,0.00
2022-12-20T01:20:43.345Z,0.00
2022-12-20T01:21:43.627Z,0.00
2022-12-20T01:22:47.474Z,0.00
2022-12-20T01:23:43.433Z,0.00
2022-12-20T01:24:43.456Z,0.00
2022-12-20T01:25:43.472Z,0.00
2022-12-20T01:26:43.500Z,0.00
2022-12-20T01:27:43.530Z,0.00
2022-12-20T01:28:43.878Z,0.00
2022-12-20T01:30:43.607Z,0.00
2022-12-20T01:31:43.779Z,0.00
2022-12-20T01:32:43.755Z,0.00
2022-12-20T01:33:43.696Z,0.00
2022-12-20T01:34:43.700Z,0.00
2022-12-20T01:35:44.046Z,0.00
2022-12-20T01:36:43.773Z,0.00
2022-12-20T01:37:43.778Z,0.00
2022-12-20T01:38:43.800Z,0.00
2022-12-20T01:39:43.831Z,0.00
2022-12-20T01:40:43.852Z,0.00
2022-12-20T01:41:43.878Z,0.00
2022-12-20T01:42:43.906Z,0.00
2022-12-20T01:43:43.929Z,0.00
2022-12-20T01:44:43.955Z,0.00
2022-12-20T01:45:44.037Z,0.00
2022-12-20T01:46:44.012Z,0.00
2022-12-20T01:47:44.036Z,0.00
2022-12-20T01:48:44.356Z,0.00
2022-12-20T01:49:44.115Z,0.00
2022-12-20T01:50:44.108Z,0.00
2022-12-20T01:51:44.148Z,0.00
2022-12-20T01:52:44.165Z,0.00
2022-12-20T01:53:44.180Z,0.00
2022-12-20T01:54:44.211Z,0.00
2022-12-20T01:55:44.544Z,0.00
2022-12-20T01:56:44.264Z,0.00
2022-12-20T01:57:44.286Z,0.00
2022-12-20T01:58:44.309Z,0.00
2022-12-20T01:59:44.337Z,0.00
2022-12-20T02:00:44.409Z,0.00
2022-12-20T02:01:44.546Z,0.00
2022-12-20T02:02:44.875Z,0.00
2022-12-20T02:03:44.584Z,0.00
2022-12-20T02:04:44.460Z,0.00
2022-12-20T02:05:44.510Z,0.00
2022-12-20T02:06:44.511Z,0.00
2022-12-20T02:07:44.547Z,0.00
2022-12-20T02:08:44.562Z,0.00
2022-12-20T02:09:44.838Z,0.00
2022-12-20T02:10:44.723Z,0.00
2022-12-20T02:11:44.636Z,0.00
2022-12-20T02:12:44.692Z,0.00
2022-12-20T02:14:44.728Z,0.00
2022-12-20T02:15:44.747Z,0.00
2022-12-20T02:16:44.884Z,0.00
2022-12-20T02:17:44.799Z,0.00
2022-12-20T02:18:44.814Z,0.00
2022-12-20T02:19:44.865Z,0.00
2022-12-20T02:20:44.871Z,0.00
2022-12-20T02:21:44.919Z,0.00
2022-12-20T02:22:45.233Z,0.00
2022-12-20T02:23:44.946Z,0.00
2022-12-20T02:24:44.968Z,0.00
2022-12-20T02:25:44.992Z,0.00
2022-12-20T02:26:45.047Z,0.00
2022-12-20T02:27:45.048Z,0.00
2022-12-20T02:28:45.370Z,0.00
2022-12-20T02:29:45.096Z,0.00
2022-12-20T02:30:45.125Z,0.00
2022-12-20T02:31:45.212Z,0.00
2022-12-20T02:32:45.195Z,0.00
2022-12-20T02:33:45.204Z,0.00
2022-12-20T02:34:45.521Z,0.00
2022-12-20T02:35:45.255Z,0.00
2022-12-20T02:36:45.302Z,0.00
2022-12-20T02:37:45.316Z,0.00
2022-12-20T02:38:45.336Z,0.00
2022-12-20T02:39:45.345Z,0.00
2022-12-20T02:40:45.414Z,0.00
2022-12-20T02:41:45.404Z,0.00
2022-12-20T02:42:45.476Z,0.00
2022-12-20T02:43:45.452Z,0.00
2022-12-20T02:44:45.500Z,0.00
2022-12-20T02:45:45.535Z,0.00
2022-12-20T02:46:45.539Z,0.00
2022-12-20T02:47:45.898Z,0.00
2022-12-20T02:48:45.582Z,0.00
2022-12-20T02:49:45.601Z,0.00
2022-12-20T02:50:45.628Z,0.00
2022-12-20T02:51:45.653Z,0.00
2022-12-20T02:52:45.704Z,0.00
2022-12-20T02:53:45.726Z,0.00
2022-12-20T02:54:46.026Z,0.00
2022-12-20T02:55:45.755Z,0.00
2022-12-20T02:56:45.783Z,0.00
2022-12-20T02:57:45.816Z,0.00
2022-12-20T02:59:45.853Z,0.00
2022-12-20T03:00:45.978Z,0.00
2022-12-20T03:01:46.422Z,0.00
2022-12-20T03:02:46.097Z,0.00
2022-12-20T03:03:46.018Z,0.00
2022-12-20T03:04:46.079Z,0.00
2022-12-20T03:05:46.015Z,0.00
2022-12-20T03:06:46.029Z,0.00
2022-12-20T03:07:46.052Z,0.00
2022-12-20T03:08:46.381Z,0.00
2022-12-20T03:09:46.227Z,0.00
2022-12-20T03:12:46.180Z,0.00
2022-12-20T03:13:46.211Z,0.00
2022-12-20T03:14:46.237Z,0.00
2022-12-20T03:15:46.555Z,0.00
2022-12-20T03:16:46.335Z,0.00
2022-12-20T03:17:46.305Z,0.00
2022-12-20T03:18:46.332Z,0.00
2022-12-20T03:19:46.362Z,0.00
2022-12-20T03:20:46.488Z,0.00
2022-12-20T03:21:46.408Z,0.00
2022-12-20T03:22:46.719Z,0.00
2022-12-20T03:23:46.463Z,0.00
2022-12-20T03:24:46.489Z,0.00
2022-12-20T03:25:46.637Z,0.00
2022-12-20T03:26:46.542Z,0.00
2022-12-20T03:27:46.558Z,0.00
2022-12-20T03:28:46.594Z,0.00
2022-12-20T03:29:46.859Z,0.00
2022-12-20T03:30:46.669Z,0.00
2022-12-20T03:31:46.666Z,0.00
2022-12-20T03:32:46.699Z,0.00
2022-12-20T03:33:46.728Z,0.00
2022-12-20T03:34:46.743Z,0.00
2022-12-20T03:35:46.784Z,0.00
2022-12-20T03:36:47.086Z,0.00
2022-12-20T03:37:46.915Z,0.00
2022-12-20T03:38:46.840Z,0.00
2022-12-20T03:39:46.870Z,0.00
2022-12-20T03:40:46.891Z,0.00
2022-12-20T03:41:46.933Z,0.00
2022-12-20T03:42:46.934Z,0.00
2022-12-20T03:43:47.230Z,0.00
2022-12-20T03:44:47.026Z,0.00
2022-12-20T03:45:47.019Z,0.00
2022-12-20T03:46:47.114Z,0.00
2022-12-20T03:47:47.070Z,0.00
2022-12-20T03:48:47.095Z,0.00
2022-12-20T03:49:47.438Z,0.00
2022-12-20T03:50:47.156Z,0.00
2022-12-20T03:51:47.169Z,0.00
2022-12-20T03:52:47.217Z,0.00
2022-12-20T03:53:47.251Z,0.00
2022-12-20T03:54:47.243Z,0.00
2022-12-20T03:55:47.276Z,0.00
2022-12-20T03:56:47.292Z,0.00
2022-12-20T03:58:47.666Z,0.00
2022-12-20T03:59:47.370Z,0.00
2022-12-20T04:00:47.416Z,0.00
2022-12-20T04:01:47.846Z,0.00
2022-12-20T04:02:47.669Z,0.00
2022-12-20T04:04:47.500Z,0.00
2022-12-20T04:05:47.532Z,0.00
2022-12-20T04:06:47.568Z,0.00
2022-12-20T04:07:47.577Z,0.00
2022-12-20T04:09:47.694Z,0.00
2022-12-20T04:10:47.651Z,0.00
2022-12-20T04:11:47.678Z,0.00
2022-12-20T04:12:47.697Z,0.00
2022-12-20T04:13:47.731Z,0.00
2022-12-20T04:14:48.180Z,0.00
2022-12-20T04:15:47.835Z,0.00
2022-12-20T04:16:47.806Z,0.00
2022-12-20T04:17:47.828Z,0.00
2022-12-20T04:18:47.867Z,0.00
2022-12-20T04:19:47.878Z,0.00
2022-12-20T04:20:47.902Z,0.00
2022-12-20T04:21:48.006Z,0.00
2022-12-20T04:22:47.965Z,0.00
2022-12-20T04:23:47.985Z,0.00
2022-12-20T04:24:47.997Z,0.00
2022-12-20T04:25:48.024Z,0.00
2022-12-20T04:26:48.049Z,0.00
2022-12-20T04:27:48.093Z,0.00
2022-12-20T04:28:48.354Z,0.00
2022-12-20T04:29:48.226Z,0.00
2022-12-20T04:30:48.228Z,0.00
2022-12-20T04:31:48.213Z,0.00
2022-12-20T04:32:48.225Z,0.00
2022-12-20T04:33:48.236Z,0.00
2022-12-20T04:34:48.274Z,0.00
2022-12-20T04:35:48.551Z,0.00
2022-12-20T04:36:48.305Z,0.00
2022-12-20T04:37:48.328Z,0.00
2022-12-20T04:38:48.367Z,0.00
2022-12-20T04:39:48.381Z,0.00
2022-12-20T04:40:48.406Z,0.00
2022-12-20T04:41:48.430Z,0.00
2022-12-20T04:42:48.758Z,0.00
2022-12-20T04:43:48.489Z,0.00
2022-12-20T04:45:48.541Z,0.00
2022-12-20T04:46:48.685Z,0.00
2022-12-20T04:47:48.597Z,0.00
2022-12-20T04:48:58.302Z,0.00
2022-12-20T04:49:48.893Z,0.00
2022-12-20T04:50:48.669Z,0.00
2022-12-20T04:51:48.687Z,0.00
2022-12-20T04:52:48.728Z,0.00
2022-12-20T04:53:48.739Z,0.00
2022-12-20T04:55:49.043Z,0.00
2022-12-20T04:56:48.813Z,0.00
2022-12-20T04:57:48.842Z,0.00
2022-12-20T04:58:48.879Z,0.00
2022-12-20T04:59:48.885Z,0.00
2022-12-20T05:00:48.911Z,0.00
2022-12-20T05:01:49.326Z,0.00
2022-12-20T05:02:49.184Z,0.00
2022-12-20T05:03:49.084Z,0.00
2022-12-20T05:05:49.036Z,0.00
2022-12-20T05:06:49.064Z,0.00
2022-12-20T05:07:49.497Z,0.00
2022-12-20T05:08:49.131Z,0.00
2022-12-20T05:09:49.146Z,0.00
2022-12-20T05:10:49.165Z,0.00
2022-12-20T05:11:49.190Z,0.00
2022-12-20T05:12:49.244Z,0.00
2022-12-20T05:13:49.496Z,0.00
2022-12-20T05:14:49.264Z,0.00
2022-12-20T05:15:49.302Z,0.00
2022-12-20T05:16:49.322Z,0.00
2022-12-20T05:17:49.435Z,0.00
2022-12-20T05:18:49.871Z,0.00
2022-12-20T05:19:49.392Z,0.00
2022-12-20T05:20:49.667Z,0.00
2022-12-20T05:21:49.449Z,0.00
2022-12-20T05:22:49.466Z,0.00
2022-12-20T05:23:49.497Z,0.00
2022-12-20T05:24:49.518Z,0.00
2022-12-20T05:25:49.585Z,0.00
2022-12-20T05:26:49.567Z,0.00
2022-12-20T05:27:49.606Z,0.00
2022-12-20T05:28:49.624Z,0.00
2022-12-20T05:29:49.648Z,0.00
2022-12-20T05:30:49.677Z,0.00
2022-12-20T05:31:49.759Z,0.00
2022-12-20T05:32:49.758Z,0.00
2022-12-20T05:33:50.000Z,0.00
2022-12-20T05:34:49.801Z,0.00
2022-12-20T05:35:49.800Z,0.00
2022-12-20T05:36:49.833Z,0.00
2022-12-20T05:37:49.852Z,0.00
2022-12-20T05:38:49.879Z,0.00
2022-12-20T05:39:49.904Z,0.00
2022-12-20T05:40:49.925Z,0.00
2022-12-20T05:41:49.951Z,0.00
2022-12-20T05:43:50.021Z,0.00
2022-12-20T05:44:50.035Z,0.00
2022-12-20T05:45:50.057Z,0.00
2022-12-20T05:46:50.180Z,0.00
2022-12-20T05:47:50.114Z,0.00
2022-12-20T05:48:50.129Z,0.00
2022-12-20T05:49:50.153Z,0.00
2022-12-20T05:50:50.199Z,0.00
2022-12-20T05:51:50.199Z,0.00
2022-12-20T05:52:50.275Z,0.00
2022-12-20T05:53:50.350Z,0.00
2022-12-20T05:54:50.274Z,0.00
2022-12-20T05:55:50.310Z,0.00
2022-12-20T05:56:50.341Z,0.00
2022-12-20T05:57:50.351Z,0.00
2022-12-20T05:58:50.693Z,0.00
2022-12-20T05:59:50.441Z,0.00
2022-12-20T06:00:50.441Z,0.00
2022-12-20T06:01:50.568Z,0.00
2022-12-20T06:02:50.670Z,0.00
2022-12-20T06:03:50.777Z,0.00
2022-12-20T06:04:50.947Z,0.00
2022-12-20T06:05:50.561Z,0.00
2022-12-20T06:06:50.596Z,0.00
2022-12-20T06:07:50.610Z,0.00
2022-12-20T06:08:50.637Z,0.00
2022-12-20T06:09:50.655Z,0.00
2022-12-20T06:10:50.679Z,0.00
2022-12-20T06:11:51.007Z,0.00
2022-12-20T06:12:50.761Z,0.00
2022-12-20T06:13:50.765Z,0.00
2022-12-20T06:14:50.779Z,0.00
2022-12-20T06:15:50.911Z,0.00
2022-12-20T06:16:50.913Z,0.00
2022-12-20T06:17:50.969Z,0.00
2022-12-20T06:18:51.185Z,0.00
2022-12-20T06:19:50.918Z,0.00
2022-12-20T06:20:50.936Z,0.00
2022-12-20T06:21:50.966Z,0.00
2022-12-20T06:22:51.029Z,0.00
2022-12-20T06:23:51.018Z,0.00
2022-12-20T06:24:51.045Z,0.00
2022-12-20T06:26:51.084Z,0.00
2022-12-20T06:27:51.114Z,0.00
2022-12-20T06:28:51.140Z,0.00
2022-12-20T06:29:51.223Z,0.00
2022-12-20T06:30:51.184Z,0.00
2022-12-20T06:31:51.381Z,0.00
2022-12-20T06:32:51.239Z,0.00
2022-12-20T06:33:51.535Z,0.00
2022-12-20T06:34:51.291Z,0.00
2022-12-20T06:35:51.314Z,0.00
2022-12-20T06:36:52.075Z,0.00
2022-12-20T06:37:51.360Z,0.00
2022-12-20T06:38:51.412Z,0.00
2022-12-20T06:40:51.440Z,0.00
2022-12-20T06:41:51.467Z,0.00
2022-12-20T06:42:51.512Z,0.00
2022-12-20T06:43:51.763Z,0.00
2022-12-20T06:44:51.538Z,0.00
2022-12-20T06:45:51.599Z,0.00
2022-12-20T06:46:51.593Z,0.00
2022-12-20T06:47:51.722Z,0.00
2022-12-20T06:48:51.644Z,0.00
2022-12-20T06:49:51.967Z,0.00
2022-12-20T06:50:55.849Z,0.00
2022-12-20T06:51:51.721Z,0.00
2022-12-20T06:52:51.746Z,0.00
2022-12-20T06:53:51.776Z,0.00
2022-12-20T06:54:51.824Z,0.00
2022-12-20T06:55:52.077Z,0.00
2022-12-20T06:56:51.855Z,0.00
2022-12-20T06:57:51.870Z,0.00
2022-12-20T06:58:51.898Z,0.00
2022-12-20T06:59:51.923Z,0.00
2022-12-20T07:00:52.012Z,0.00
2022-12-20T07:01:52.137Z,0.00
2022-12-20T07:02:52.494Z,0.00
2022-12-20T07:03:52.379Z,0.00
2022-12-20T07:04:52.073Z,0.00
2022-12-20T07:05:52.082Z,0.00
2022-12-20T07:06:52.106Z,0.00
2022-12-20T07:07:52.132Z,0.00
2022-12-20T07:08:52.150Z,0.00
2022-12-20T07:09:52.173Z,4.00
2022-12-20T07:10:52.291Z,4.00
2022-12-20T07:11:52.235Z,4.00
2022-12-20T07:12:52.245Z,4.00
2022-12-20T07:13:52.269Z,4.00
2022-12-20T07:14:52.321Z,4.00
2022-12-20T07:15:52.626Z,4.00
2022-12-20T07:16:52.455Z,4.00
2022-12-20T07:17:52.374Z,4.00
2022-12-20T07:18:52.414Z,8.00
2022-12-20T07:19:52.424Z,8.00
2022-12-20T07:20:52.460Z,8.00
2022-12-20T07:21:52.474Z,8.00
2022-12-20T07:22:52.806Z,8.00
2022-12-20T07:23:52.540Z,12.00
2022-12-20T07:25:52.588Z,16.00
2022-12-20T07:26:52.622Z,16.00
2022-12-20T07:27:52.650Z,16.00
2022-12-20T07:28:52.654Z,20.00
2022-12-20T07:29:53.001Z,24.00
2022-12-20T07:30:52.729Z,24.00
2022-12-20T07:31:52.825Z,28.00
2022-12-20T07:32:52.776Z,28.00
2022-12-20T07:33:53.044Z,36.00
2022-12-20T07:34:52.798Z,36.00
2022-12-20T07:35:54.911Z,40.00
2022-12-20T07:36:53.157Z,44.00
2022-12-20T07:37:52.905Z,52.00
2022-12-20T07:38:52.902Z,56.00
2022-12-20T07:39:52.934Z,64.00
2022-12-20T07:40:52.967Z,68.00
2022-12-20T07:41:53.038Z,72.00
2022-12-20T07:42:53.026Z,80.00
2022-12-20T07:43:53.026Z,88.00
2022-12-20T07:44:53.061Z,92.00
2022-12-20T07:45:53.120Z,100.00
2022-12-20T07:46:53.114Z,108.00
2022-12-20T07:47:53.171Z,124.00
2022-12-20T07:48:53.158Z,132.00
2022-12-20T07:49:53.454Z,148.00
2022-12-20T07:50:53.210Z,160.00
2022-12-20T07:51:53.247Z,168.00
2022-12-20T07:52:53.283Z,176.00
2022-12-20T07:53:53.303Z,184.00
2022-12-20T07:54:53.464Z,180.00
2022-12-20T07:55:53.338Z,180.00
2022-12-20T07:56:53.381Z,188.00
2022-12-20T07:57:53.405Z,200.00
2022-12-20T07:58:53.450Z,200.00
2022-12-20T08:00:53.872Z,192.00
2022-12-20T08:01:54.352Z,196.00
2022-12-20T08:02:53.832Z,200.00
2022-12-20T08:03:53.588Z,192.00
2022-12-20T08:04:53.565Z,176.00
2022-12-20T08:05:53.591Z,148.00
2022-12-20T08:06:53.671Z,140.00
2022-12-20T08:07:58.924Z,168.00
2022-12-20T08:08:53.668Z,204.00
2022-12-20T08:09:53.709Z,232.00
2022-12-20T08:11:53.739Z,240.00
2022-12-20T08:12:53.763Z,244.00
2022-12-20T08:13:57.744Z,248.00
2022-12-20T08:14:53.856Z,260.00
2022-12-20T08:16:53.906Z,248.00
2022-12-20T08:18:53.925Z,244.00
2022-12-20T08:19:53.939Z,244.00
2022-12-20T08:20:54.283Z,236.00
2022-12-20T08:21:53.990Z,224.00
2022-12-20T08:22:54.038Z,216.00
2022-12-20T08:23:54.037Z,224.00
2022-12-20T08:24:54.082Z,248.00
2022-12-20T08:25:54.089Z,268.00
2022-12-20T08:27:54.446Z,244.00
2022-12-20T08:28:54.197Z,216.00
2022-12-20T08:29:54.194Z,204.00
2022-12-20T08:30:54.271Z,204.00
2022-12-20T08:31:54.246Z,220.00
2022-12-20T08:32:54.377Z,224.00
2022-12-20T08:33:54.297Z,208.00
2022-12-20T08:34:54.576Z,200.00
2022-12-20T08:35:54.346Z,204.00
2022-12-20T08:37:54.404Z,208.00
2022-12-20T08:38:54.427Z,204.00
2022-12-20T08:40:54.790Z,204.00
2022-12-20T08:41:54.497Z,208.00
2022-12-20T08:42:54.524Z,208.00
2022-12-20T08:43:54.543Z,200.00
2022-12-20T08:44:54.575Z,196.00
2022-12-20T08:45:54.683Z,204.00
2022-12-20T08:46:54.665Z,228.00
2022-12-20T08:47:54.950Z,248.00
2022-12-20T08:48:54.684Z,248.00
2022-12-20T08:49:54.697Z,236.00
2022-12-20T08:50:54.763Z,228.00
2022-12-20T08:51:54.764Z,224.00
2022-12-20T08:52:54.777Z,220.00
2022-12-20T08:53:55.106Z,216.00
2022-12-20T08:54:54.861Z,212.00
2022-12-20T08:55:54.867Z,204.00
2022-12-20T08:56:54.874Z,208.00
2022-12-20T08:57:54.906Z,212.00
2022-12-20T08:58:54.926Z,204.00
2022-12-20T08:59:54.960Z,196.00
2022-12-20T09:01:55.184Z,232.00
2022-12-20T09:02:55.363Z,232.00
2022-12-20T09:03:55.153Z,220.00
2022-12-20T09:04:55.084Z,212.00
2022-12-20T09:05:55.353Z,212.00
2022-12-20T09:06:55.134Z,208.00
2022-12-20T09:07:55.154Z,212.00
2022-12-20T09:08:55.190Z,224.00
2022-12-20T09:09:55.211Z,244.00
2022-12-20T09:10:55.232Z,264.00
2022-12-20T09:11:55.252Z,276.00
2022-12-20T09:12:55.590Z,272.00
2022-12-20T09:13:55.305Z,264.00
2022-12-20T09:14:55.354Z,248.00
2022-12-20T09:15:55.377Z,228.00
2022-12-20T09:16:55.428Z,220.00
2022-12-20T09:17:55.410Z,216.00
2022-12-20T09:19:00.708Z,216.00
2022-12-20T09:19:55.454Z,224.00
2022-12-20T09:20:55.482Z,240.00
2022-12-20T09:21:55.522Z,252.00
2022-12-20T09:22:55.536Z,256.00
2022-12-20T09:23:55.564Z,264.00
2022-12-20T09:24:55.589Z,280.00
2022-12-20T09:25:55.610Z,300.00
2022-12-20T09:26:55.652Z,320.00
2022-12-20T09:27:55.661Z,348.00
2022-12-20T09:28:55.689Z,400.00
2022-12-20T09:29:55.709Z,456.00
2022-12-20T09:30:55.766Z,500.00
2022-12-20T09:32:56.034Z,552.00
2022-12-20T09:33:55.834Z,568.00
2022-12-20T09:34:55.860Z,584.00
2022-12-20T09:35:55.971Z,600.00
2022-12-20T09:36:55.887Z,592.00
2022-12-20T09:37:55.928Z,572.00
2022-12-20T09:38:55.938Z,568.00
2022-12-20T09:39:56.215Z,568.00
2022-12-20T09:40:55.985Z,576.00
2022-12-20T09:41:56.009Z,596.00
2022-12-20T09:42:56.035Z,608.00
2022-12-20T09:43:56.173Z,600.00
2022-12-20T09:44:56.090Z,560.00
2022-12-20T09:45:56.338Z,524.00
2022-12-20T09:46:56.496Z,488.00
2022-12-20T09:47:56.169Z,460.00
2022-12-20T09:48:56.185Z,464.00
2022-12-20T09:49:56.233Z,508.00
2022-12-20T09:50:56.287Z,548.00
2022-12-20T09:51:56.267Z,572.00
2022-12-20T09:52:56.290Z,588.00
2022-12-20T09:54:56.343Z,652.00
2022-12-20T09:55:56.378Z,708.00
2022-12-20T09:56:56.392Z,744.00
2022-12-20T09:57:56.422Z,748.00
2022-12-20T09:58:56.443Z,712.00
2022-12-20T09:59:56.469Z,640.00
2022-12-20T10:00:56.792Z,560.00
2022-12-20T10:01:56.805Z,524.00
2022-12-20T10:03:06.541Z,524.00
2022-12-20T10:03:56.704Z,524.00
2022-12-20T10:04:56.804Z,512.00
2022-12-20T10:05:56.921Z,508.00
2022-12-20T10:06:56.672Z,512.00
2022-12-20T10:07:56.674Z,496.00
2022-12-20T10:08:56.698Z,464.00
2022-12-20T10:09:56.723Z,452.00
2022-12-20T10:10:56.766Z,460.00
2022-12-20T10:11:56.793Z,488.00
2022-12-20T10:12:56.795Z,568.00
2022-12-20T10:13:57.117Z,640.00
2022-12-20T10:14:56.911Z,676.00
2022-12-20T10:15:56.909Z,704.00
2022-12-20T10:16:56.899Z,756.00
2022-12-20T10:17:56.928Z,764.00
2022-12-20T10:18:56.950Z,692.00
2022-12-20T10:19:57.276Z,656.00
2022-12-20T10:20:57.203Z,696.00
2022-12-20T10:21:57.027Z,736.00
2022-12-20T10:22:57.078Z,752.00
2022-12-20T10:23:57.090Z,728.00
2022-12-20T10:24:57.105Z,664.00
2022-12-20T10:25:57.424Z,588.00
2022-12-20T10:26:57.151Z,516.00
2022-12-20T10:28:57.219Z,504.00
2022-12-20T10:29:57.243Z,516.00
2022-12-20T10:30:57.422Z,524.00
2022-12-20T10:31:57.318Z,596.00
2022-12-20T10:33:57.321Z,804.00
2022-12-20T10:34:57.349Z,800.00
2022-12-20T10:35:57.380Z,840.00
2022-12-20T10:36:57.408Z,892.00
2022-12-20T10:38:57.734Z,996.00
2022-12-20T10:40:02.010Z,1128.00
2022-12-20T10:41:24.033Z,1172.00
2022-12-20T10:41:57.529Z,1084.00
2022-12-20T10:42:57.558Z,976.00
2022-12-20T10:43:57.581Z,912.00
2022-12-20T10:44:57.614Z,884.00
2022-12-20T10:45:57.887Z,824.00
2022-12-20T10:47:57.698Z,820.00
2022-12-20T10:48:58.171Z,836.00
2022-12-20T10:49:57.736Z,864.00
2022-12-20T10:50:57.773Z,924.00
2022-12-20T10:51:57.792Z,1012.00
2022-12-20T10:52:58.123Z,1124.00
2022-12-20T10:53:57.835Z,1200.00
2022-12-20T10:54:57.888Z,1352.00
2022-12-20T10:55:57.890Z,1500.00
2022-12-20T10:56:58.220Z,1700.00
2022-12-20T10:57:57.969Z,1896.00
2022-12-20T10:59:58.244Z,1808.00
2022-12-20T11:01:58.188Z,1488.00
2022-12-20T11:02:58.528Z,1324.00
2022-12-20T11:03:58.143Z,1092.00
2022-12-20T11:04:58.115Z,984.00
2022-12-20T11:05:58.137Z,924.00
2022-12-20T11:06:58.418Z,900.00
2022-12-20T11:09:00.943Z,928.00
2022-12-20T11:09:58.250Z,836.00
2022-12-20T11:10:58.291Z,720.00
2022-12-20T11:11:58.289Z,712.00
2022-12-20T11:12:58.324Z,808.00
2022-12-20T11:13:58.342Z,844.00
2022-12-20T11:14:58.367Z,848.00
2022-12-20T11:15:58.460Z,860.00
2022-12-20T11:16:58.422Z,808.00
2022-12-20T11:18:58.736Z,720.00
2022-12-20T11:19:58.515Z,676.00
2022-12-20T11:20:58.551Z,640.00
2022-12-20T11:21:58.554Z,584.00
2022-12-20T11:22:58.575Z,556.00
2022-12-20T11:23:58.615Z,532.00
2022-12-20T11:24:58.874Z,576.00
2022-12-20T11:25:58.658Z,616.00
2022-12-20T11:26:58.747Z,692.00
2022-12-20T11:27:58.701Z,740.00
2022-12-20T11:28:58.721Z,700.00
2022-12-20T11:29:58.753Z,716.00
2022-12-20T11:30:58.833Z,696.00
2022-12-20T11:31:58.933Z,708.00
2022-12-20T11:32:58.927Z,724.00
2022-12-20T11:33:58.901Z,724.00
2022-12-20T11:35:59.168Z,684.00
2022-12-20T11:36:58.933Z,768.00
2022-12-20T11:38:02.713Z,792.00
2022-12-20T11:38:59.000Z,860.00
2022-12-20T11:39:59.008Z,948.00
2022-12-20T11:40:59.113Z,964.00
2022-12-20T11:42:59.127Z,1008.00
2022-12-20T11:44:24.536Z,1068.00
2022-12-20T11:45:08.446Z,1072.00
2022-12-20T11:45:59.176Z,1036.00
2022-12-20T11:46:59.193Z,1044.00
2022-12-20T11:47:59.215Z,1008.00
2022-12-20T11:48:59.238Z,968.00
2022-12-20T11:49:59.260Z,904.00
2022-12-20T11:50:59.309Z,872.00
2022-12-20T11:51:59.316Z,820.00
2022-12-20T11:52:59.337Z,760.00
2022-12-20T11:53:59.371Z,744.00
2022-12-20T11:54:59.423Z,696.00
2022-12-20T11:55:59.424Z,624.00
2022-12-20T11:56:59.434Z,588.00
2022-12-20T11:58:18.002Z,548.00
2022-12-20T11:58:59.523Z,560.00
2022-12-20T11:59:59.543Z,572.00
2022-12-20T12:00:59.566Z,552.00
2022-12-20T12:01:59.983Z,528.00
2022-12-20T12:02:59.661Z,508.00
2022-12-20T12:03:59.621Z,500.00
2022-12-20T12:04:59.693Z,524.00
2022-12-20T12:05:59.687Z,592.00
2022-12-20T12:06:59.709Z,692.00
2022-12-20T12:08:00.025Z,748.00
2022-12-20T12:08:59.746Z,772.00
2022-12-20T12:09:59.799Z,756.00
2022-12-20T12:10:59.834Z,692.00
2022-12-20T12:12:08.893Z,636.00
2022-12-20T12:12:59.851Z,576.00
2022-12-20T12:13:59.874Z,568.00
2022-12-20T12:14:59.939Z,604.00
2022-12-20T12:16:00.344Z,672.00
2022-12-20T12:17:00.099Z,724.00
2022-12-20T12:17:59.992Z,804.00
2022-12-20T12:19:00.015Z,784.00
2022-12-20T12:20:00.332Z,676.00
2022-12-20T12:21:03.480Z,592.00
2022-12-20T12:22:00.178Z,540.00
2022-12-20T12:23:00.133Z,556.00
2022-12-20T12:24:00.144Z,528.00
2022-12-20T12:25:00.175Z,544.00
2022-12-20T12:26:00.183Z,568.00
2022-12-20T12:27:00.207Z,568.00
2022-12-20T12:28:00.284Z,544.00
2022-12-20T12:29:00.264Z,540.00
2022-12-20T12:30:00.372Z,560.00
2022-12-20T12:31:00.360Z,584.00
2022-12-20T12:32:00.396Z,624.00
2022-12-20T12:33:00.642Z,656.00
2022-12-20T12:34:00.394Z,652.00
2022-12-20T12:35:00.715Z,616.00
2022-12-20T12:36:00.440Z,664.00
2022-12-20T12:37:00.476Z,724.00
2022-12-20T12:38:00.493Z,708.00
2022-12-20T12:39:02.532Z,652.00
2022-12-20T12:40:00.833Z,640.00
2022-12-20T12:41:00.563Z,628.00
2022-12-20T12:42:00.593Z,624.00
2022-12-20T12:43:00.654Z,612.00
2022-12-20T12:44:00.639Z,640.00
2022-12-20T12:45:00.714Z,636.00
2022-12-20T12:46:00.794Z,624.00
2022-12-20T12:47:01.000Z,612.00
2022-12-20T12:48:00.784Z,588.00
2022-12-20T12:49:00.872Z,552.00
2022-12-20T12:50:00.799Z,528.00
2022-12-20T12:51:00.831Z,504.00
2022-12-20T12:52:00.845Z,480.00
2022-12-20T12:53:00.891Z,460.00
2022-12-20T12:55:01.226Z,448.00
2022-12-20T12:56:19.324Z,432.00
2022-12-20T12:57:00.980Z,408.00
2022-12-20T12:58:01.006Z,376.00
2022-12-20T12:59:01.040Z,376.00
2022-12-20T13:00:01.079Z,384.00
2022-12-20T13:01:01.194Z,384.00
2022-12-20T13:03:01.262Z,408.00
2022-12-20T13:04:01.177Z,420.00
2022-12-20T13:05:01.288Z,428.00
2022-12-20T13:06:01.207Z,432.00
2022-12-20T13:07:01.243Z,428.00
2022-12-20T13:08:01.515Z,432.00
2022-12-20T13:09:01.288Z,444.00
2022-12-20T13:10:01.315Z,444.00
2022-12-20T13:11:01.339Z,432.00
2022-12-20T13:12:06.791Z,424.00
2022-12-20T13:13:01.406Z,420.00
2022-12-20T13:14:01.714Z,412.00
2022-12-20T13:15:01.458Z,424.00
2022-12-20T13:16:01.465Z,416.00
2022-12-20T13:17:22.422Z,396.00
2022-12-20T13:18:01.703Z,392.00
2022-12-20T13:19:01.562Z,392.00
2022-12-20T13:20:01.562Z,376.00
2022-12-20T13:21:01.587Z,356.00
2022-12-20T13:22:01.613Z,344.00
2022-12-20T13:23:01.640Z,336.00
2022-12-20T13:24:01.673Z,324.00
2022-12-20T13:25:01.699Z,312.00
2022-12-20T13:26:01.715Z,300.00
2022-12-20T13:27:01.751Z,316.00
2022-12-20T13:28:05.413Z,336.00
2022-12-20T13:29:01.796Z,364.00
2022-12-20T13:30:01.857Z,404.00
2022-12-20T13:31:01.984Z,448.00
2022-12-20T13:32:01.875Z,472.00
2022-12-20T13:33:01.903Z,472.00
2022-12-20T13:34:01.922Z,484.00
2022-12-20T13:35:01.969Z,492.00
2022-12-20T13:37:02.250Z,432.00
2022-12-20T13:38:02.106Z,412.00
2022-12-20T13:39:02.073Z,408.00
2022-12-20T13:40:02.149Z,400.00
2022-12-20T13:41:02.100Z,376.00
2022-12-20T13:42:02.133Z,364.00
2022-12-20T13:43:02.414Z,348.00